createdAt,value
2023-07-06T00:00:32.596Z,100188.78
2023-07-06T00:02:38.368Z,100188.34
2023-07-06T00:04:43.980Z,100189.31
2023-07-06T00:06:49.443Z,100196.14
2023-07-06T00:08:54.968Z,100194.11
2023-07-06T00:11:00.507Z,100199.81
2023-07-06T00:13:06.253Z,100203.51
2023-07-06T00:15:11.846Z,100206.8
2023-07-06T00:17:17.228Z,100214.61
2023-07-06T00:19:22.791Z,100213.4
2023-07-06T00:21:28.422Z,100212.32
2023-07-06T00:23:33.958Z,100212.54
2023-07-06T00:25:39.411Z,100217.96
2023-07-06T00:27:44.845Z,100220.41
2023-07-06T00:29:50.418Z,100221.88
2023-07-06T00:31:55.968Z,100220.78
2023-07-06T00:34:01.678Z,100228.21
2023-07-06T00:36:07.319Z,100218.45
2023-07-06T00:38:12.767Z,100219.77
2023-07-06T00:40:18.245Z,100219.96
2023-07-06T00:42:23.918Z,100221.34
2023-07-06T00:44:29.592Z,100224.92
2023-07-06T00:46:35.196Z,100224.95
2023-07-06T00:48:40.961Z,100226.49
2023-07-06T00:50:46.317Z,100228.95
2023-07-06T00:52:51.662Z,100228.23
2023-07-06T00:54:57.217Z,100229.34
2023-07-06T00:57:02.602Z,100232.52
2023-07-06T00:59:08.607Z,100235.67
2023-07-06T01:01:14.245Z,100236.55
2023-07-06T01:03:19.899Z,100238.38
2023-07-06T01:05:25.808Z,100234.76
2023-07-06T01:07:31.199Z,100237.81
2023-07-06T01:09:36.648Z,100236.08
2023-07-06T01:13:35.147Z,100236.45
2023-07-06T01:15:40.768Z,100237.07
2023-07-06T01:17:46.322Z,100243.09
2023-07-06T01:19:51.868Z,100245.58
2023-07-06T01:21:57.270Z,100248.65
2023-07-06T01:24:02.690Z,100246.26
2023-07-06T01:26:08.052Z,100247.07
2023-07-06T01:28:14.087Z,100245.41
2023-07-06T01:30:20.473Z,100240.59
2023-07-06T01:32:26.291Z,100240.91
2023-07-06T01:34:31.878Z,100241.26
2023-07-06T01:36:37.405Z,100241.9
2023-07-06T01:38:42.947Z,100239.35
2023-07-06T01:40:48.492Z,100241.88
2023-07-06T01:42:54.151Z,100239.39
2023-07-06T01:44:59.790Z,100241.09
2023-07-06T01:47:05.696Z,100241.86
2023-07-06T01:49:11.537Z,100239.16
2023-07-06T01:51:16.961Z,100236.94
2023-07-06T01:53:22.388Z,100239.02
2023-07-06T01:55:27.980Z,100236.22
2023-07-06T01:57:56.093Z,100236.05
2023-07-06T02:00:06.886Z,100237.96
2023-07-06T02:02:12.642Z,100239.95
2023-07-06T02:04:18.308Z,100241.06
2023-07-06T02:06:23.621Z,100246.3
2023-07-06T02:08:29.138Z,100244.77
2023-07-06T02:10:34.675Z,100246.17
2023-07-06T02:12:40.130Z,100250.82
2023-07-06T02:14:45.758Z,100255.42
2023-07-06T02:16:51.317Z,100252.36
2023-07-06T02:18:56.862Z,100254.17
2023-07-06T02:21:02.307Z,100253.95
2023-07-06T02:23:08.136Z,100252.61
2023-07-06T02:25:14.295Z,100255.23
2023-07-06T02:27:19.733Z,100253.82
2023-07-06T02:29:25.274Z,100256.24
2023-07-06T02:31:30.687Z,100259.81
2023-07-06T02:33:36.138Z,100263.5
2023-07-06T02:35:41.585Z,100264.89
2023-07-06T02:37:47.340Z,100262.17
2023-07-06T02:39:52.876Z,100264.7
2023-07-06T02:41:58.633Z,100266.98
2023-07-06T02:44:04.377Z,100269.98
2023-07-06T02:46:09.798Z,100270.34
2023-07-06T02:48:15.366Z,100271.56
2023-07-06T02:50:20.910Z,100273.61
2023-07-06T02:52:26.411Z,100270.89
2023-07-06T02:54:31.790Z,100273.4
2023-07-06T02:56:37.324Z,100272.73
2023-07-06T02:58:42.876Z,100280.99
2023-07-06T03:00:48.256Z,100279.73
2023-07-06T03:02:53.794Z,100286.59
2023-07-06T03:04:59.507Z,100285.89
2023-07-06T03:07:04.941Z,100288.3
2023-07-06T03:09:10.398Z,100285.81
2023-07-06T03:11:15.848Z,100283.45
2023-07-06T03:13:21.238Z,100275.38
2023-07-06T03:15:26.820Z,100277.02
2023-07-06T03:17:32.349Z,100277.25
2023-07-06T03:19:37.972Z,100279.67
2023-07-06T03:21:43.445Z,100280.46
2023-07-06T03:23:48.820Z,100277.63
2023-07-06T03:25:54.483Z,100276.67
2023-07-06T03:28:00.487Z,100277.98
2023-07-06T03:30:05.918Z,100280.68
2023-07-06T03:32:11.316Z,100285.91
2023-07-06T03:34:16.741Z,100290.23
2023-07-06T03:36:22.337Z,100290.41
2023-07-06T03:38:27.872Z,100289.59
2023-07-06T03:40:33.529Z,100294.94
2023-07-06T03:42:38.926Z,100293.95
2023-07-06T03:44:44.319Z,100298.53
2023-07-06T03:46:49.741Z,100300.28
2023-07-06T03:48:55.143Z,100305.3
2023-07-06T03:51:00.520Z,100309.98
2023-07-06T03:53:05.968Z,100312.72
2023-07-06T03:55:11.520Z,100319.16
2023-07-06T03:57:16.952Z,100321.02
2023-07-06T03:59:22.452Z,100321.47
2023-07-06T04:01:27.963Z,100329.59
2023-07-06T04:03:33.637Z,100326.6
2023-07-06T04:05:39.392Z,100327.59
2023-07-06T04:07:44.874Z,100326.31
2023-07-06T04:09:50.235Z,100323.77
2023-07-06T04:11:55.750Z,100330.02
2023-07-06T04:14:01.492Z,100331.73
2023-07-06T04:16:07.126Z,100334.84
2023-07-06T04:18:12.723Z,100340.37
2023-07-06T04:20:18.239Z,100337.81
2023-07-06T04:22:23.755Z,100339.04
2023-07-06T04:24:29.216Z,100346.23
2023-07-06T04:26:34.622Z,100348.84
2023-07-06T04:28:40.098Z,100346.63
2023-07-06T04:30:45.558Z,100349.11
2023-07-06T04:32:51.043Z,100354.38
2023-07-06T04:34:56.697Z,100357.2
2023-07-06T04:37:02.032Z,100352.26
2023-07-06T04:39:07.601Z,100355.73
2023-07-06T04:41:13.161Z,100357.98
2023-07-06T04:43:18.686Z,100358.52
2023-07-06T04:45:24.145Z,100356.44
2023-07-06T04:47:29.668Z,100356.69
2023-07-06T04:49:35.240Z,100355.84
2023-07-06T04:51:40.722Z,100356.39
2023-07-06T04:53:46.209Z,100355.33
2023-07-06T04:55:51.642Z,100354.27
2023-07-06T04:57:58.845Z,100359.84
2023-07-06T05:00:04.357Z,100363.16
2023-07-06T05:02:09.912Z,100370.16
2023-07-06T05:04:15.363Z,100368.56
2023-07-06T05:06:20.761Z,100378.45
2023-07-06T05:08:26.228Z,100387.16
2023-07-06T05:10:31.771Z,100396.22
2023-07-06T05:12:37.173Z,100391.13
2023-07-06T05:14:43.660Z,100392.95
2023-07-06T05:16:50.852Z,100391.38
2023-07-06T05:18:56.375Z,100394.55
2023-07-06T05:21:01.959Z,100399.31
2023-07-06T05:23:07.509Z,100401.13
2023-07-06T05:25:12.882Z,100395.98
2023-07-06T05:27:18.259Z,100398.02
2023-07-06T05:29:23.604Z,100396.83
2023-07-06T05:31:28.967Z,100400.1
2023-07-06T05:33:34.611Z,100398.84
2023-07-06T05:35:40.335Z,100393.73
2023-07-06T05:37:45.780Z,100395.45
2023-07-06T05:39:51.222Z,100394.36
2023-07-06T05:41:56.644Z,100394.65
2023-07-06T05:44:02.393Z,100398.31
2023-07-06T05:46:08.145Z,100402.34
2023-07-06T05:48:13.651Z,100404.95
2023-07-06T05:50:19.076Z,100403.2
2023-07-06T05:52:24.665Z,100405.89
2023-07-06T05:54:30.217Z,100411.48
2023-07-06T05:56:35.756Z,100411.8
2023-07-06T05:58:41.371Z,100408.3
2023-07-06T06:00:46.866Z,100411.77
2023-07-06T06:02:52.518Z,100406.66
2023-07-06T06:04:58.025Z,100404.03
2023-07-06T06:07:03.472Z,100406.48
2023-07-06T06:09:09.013Z,100413.11
2023-07-06T06:11:14.484Z,100406.28
2023-07-06T06:13:19.944Z,100409.56
2023-07-06T06:15:25.417Z,100403.88
2023-07-06T06:17:30.943Z,100401.48
2023-07-06T06:19:36.543Z,100404.39
2023-07-06T06:21:41.964Z,100402.8
2023-07-06T06:23:47.527Z,100398.56
2023-07-06T06:25:53.044Z,100404.37
2023-07-06T06:27:58.868Z,100404.34
2023-07-06T06:30:04.235Z,100404.41
2023-07-06T06:32:09.923Z,100405.54
2023-07-06T06:34:15.636Z,100399.43
2023-07-06T06:36:21.080Z,100407.05
2023-07-06T06:38:26.521Z,100415.17
2023-07-06T06:40:32.121Z,100419.95
2023-07-06T06:42:37.492Z,100425.23
2023-07-06T06:44:42.940Z,100427.88
2023-07-06T06:46:48.572Z,100427.59
2023-07-06T06:48:54.124Z,100429.03
2023-07-06T06:50:59.635Z,100426
2023-07-06T06:53:05.114Z,100423.94
2023-07-06T06:55:10.758Z,100426.02
2023-07-06T06:57:16.197Z,100427.84
2023-07-06T06:59:21.846Z,100432.57
2023-07-06T07:01:27.287Z,100433.3
2023-07-06T07:03:32.837Z,100427.8
2023-07-06T07:05:38.449Z,100427.7
2023-07-06T07:07:44.028Z,100430.2
2023-07-06T07:09:49.484Z,100431.86
2023-07-06T07:11:55.229Z,100427.39
2023-07-06T07:14:00.886Z,100431.52
2023-07-06T07:16:06.410Z,100434.09
2023-07-06T07:18:11.932Z,100434.02
2023-07-06T07:20:17.591Z,100436.84
2023-07-06T07:22:23.032Z,100434.94
2023-07-06T07:24:28.466Z,100436.78
2023-07-06T07:26:33.950Z,100437.83
2023-07-06T07:28:39.278Z,100432.56
2023-07-06T07:30:44.775Z,100436.28
2023-07-06T07:32:50.480Z,100436.48
2023-07-06T07:34:56.080Z,100436.87
2023-07-06T07:37:01.495Z,100433.66
2023-07-06T07:39:06.950Z,100433.06
2023-07-06T07:41:12.410Z,100431.17
2023-07-06T07:43:17.835Z,100434.61
2023-07-06T07:45:23.265Z,100430.38
2023-07-06T07:47:28.898Z,100433.61
2023-07-06T07:49:34.462Z,100432.23
2023-07-06T07:51:40.025Z,100434.25
2023-07-06T07:53:45.805Z,100433.92
2023-07-06T07:55:51.254Z,100431.51
2023-07-06T07:57:56.828Z,100432.05
2023-07-06T08:00:02.386Z,100428.98
2023-07-06T08:02:07.922Z,100427.53
2023-07-06T08:04:13.628Z,100428.5
2023-07-06T08:06:19.036Z,100431.15
2023-07-06T08:08:24.720Z,100429.98
2023-07-06T08:10:30.203Z,100434.86
2023-07-06T08:12:35.631Z,100430.95
2023-07-06T08:14:40.933Z,100433.94
2023-07-06T08:16:46.413Z,100435.58
2023-07-06T08:19:05.243Z,100432.83
2023-07-06T08:22:11.778Z,100429.16
2023-07-06T08:24:17.055Z,100428.86
2023-07-06T08:26:22.426Z,100431.16
2023-07-06T08:28:28.270Z,100428.52
2023-07-06T08:30:33.610Z,100428.5
2023-07-06T08:32:39.181Z,100437.11
2023-07-06T08:34:44.694Z,100431.63
2023-07-06T08:36:50.173Z,100432.16
2023-07-06T08:38:55.630Z,100433.89
2023-07-06T08:41:01.053Z,100436.5
2023-07-06T08:43:06.426Z,100429.04
2023-07-06T08:45:11.886Z,100433.42
2023-07-06T08:47:17.437Z,100432.25
2023-07-06T08:49:23.524Z,100432.03
2023-07-06T08:51:32.261Z,100431.14
2023-07-06T08:53:37.646Z,100429.61
2023-07-06T08:55:43.041Z,100428.86
2023-07-06T08:57:48.622Z,100430.23
2023-07-06T08:59:54.159Z,100431.72
2023-07-06T09:01:59.609Z,100428.49
2023-07-06T09:04:05.091Z,100427.72
2023-07-06T09:06:10.490Z,100429.09
2023-07-06T09:08:16.130Z,100430.41
2023-07-06T09:10:26.949Z,100427.97
2023-07-06T09:12:32.648Z,100433.95
2023-07-06T09:14:38.191Z,100429
2023-07-06T09:16:43.844Z,100431.51
2023-07-06T09:18:49.381Z,100431.17
2023-07-06T09:20:54.822Z,100426.47
2023-07-06T09:23:00.259Z,100425.2
2023-07-06T09:25:05.808Z,100430.66
2023-07-06T09:27:11.113Z,100427.3
2023-07-06T09:29:16.789Z,100429.78
2023-07-06T09:31:22.452Z,100429.73
2023-07-06T09:33:28.785Z,100429.16
2023-07-06T09:35:37.312Z,100429.12
2023-07-06T09:37:43.094Z,100433.47
2023-07-06T09:39:48.604Z,100434.33
2023-07-06T09:41:54.047Z,100434.09
2023-07-06T09:43:59.768Z,100436.75
2023-07-06T09:46:06.342Z,100437.99
2023-07-06T09:48:12.614Z,100440.73
2023-07-06T09:50:18.265Z,100437.65
2023-07-06T09:52:23.807Z,100442.63
2023-07-06T09:54:29.234Z,100436.88
2023-07-06T09:56:34.777Z,100438.09
2023-07-06T09:58:40.087Z,100437.6
2023-07-06T10:00:45.556Z,100437.75
2023-07-06T10:02:51.233Z,100437.57
2023-07-06T10:04:56.783Z,100435.95
2023-07-06T10:07:02.191Z,100445.46
2023-07-06T10:09:07.741Z,100445.02
2023-07-06T10:11:13.206Z,100441.78
2023-07-06T10:13:18.697Z,100435.39
2023-07-06T10:15:24.225Z,100433.8
2023-07-06T10:17:29.837Z,100432.87
2023-07-06T10:19:35.320Z,100437.01
2023-07-06T10:21:40.682Z,100438.23
2023-07-06T10:23:46.321Z,100442.83
2023-07-06T10:25:51.875Z,100440.56
2023-07-06T10:27:57.472Z,100442.64
2023-07-06T10:30:03.056Z,100445.25
2023-07-06T10:32:08.639Z,100440.69
2023-07-06T10:34:14.252Z,100441.66
2023-07-06T10:36:19.789Z,100435.94
2023-07-06T10:38:25.342Z,100439.7
2023-07-06T10:40:30.890Z,100436.69
2023-07-06T10:42:36.306Z,100429.56
2023-07-06T10:44:41.833Z,100432.13
2023-07-06T10:46:47.391Z,100428.52
2023-07-06T10:48:52.937Z,100423.16
2023-07-06T10:50:58.487Z,100430.38
2023-07-06T10:53:03.946Z,100434.77
2023-07-06T10:55:09.383Z,100437.59
2023-07-06T10:57:14.660Z,100433.52
2023-07-06T10:59:20.065Z,100432.69
2023-07-06T11:01:25.498Z,100427.69
2023-07-06T11:03:31.388Z,100431.22
2023-07-06T11:05:39.241Z,100430.81
2023-07-06T11:07:44.832Z,100427.29
2023-07-06T11:09:50.358Z,100428.55
2023-07-06T11:11:55.768Z,100429.78
2023-07-06T11:14:01.463Z,100421.78
2023-07-06T11:16:08.556Z,100428.91
2023-07-06T11:18:13.993Z,100431.13
2023-07-06T11:20:19.402Z,100427.11
2023-07-06T11:22:24.889Z,100430.81
2023-07-06T11:24:30.355Z,100426.81
2023-07-06T11:26:35.806Z,100427.52
2023-07-06T11:28:41.357Z,100430.28
2023-07-06T11:30:46.782Z,100429.19
2023-07-06T11:32:52.334Z,100430.92
2023-07-06T11:34:57.982Z,100427.12
2023-07-06T11:37:03.585Z,100429.53
2023-07-06T11:39:09.221Z,100428.61
2023-07-06T11:41:14.735Z,100423.84
2023-07-06T11:43:20.139Z,100427.7
2023-07-06T11:45:26.043Z,100422.36
2023-07-06T11:47:31.780Z,100429.9
2023-07-06T11:49:37.318Z,100430.6
2023-07-06T11:51:42.721Z,100436.56
2023-07-06T11:53:48.168Z,100432.17
2023-07-06T11:55:53.705Z,100432.23
2023-07-06T11:57:59.667Z,100431.67
2023-07-06T12:00:05.200Z,100427.61
2023-07-06T12:02:10.794Z,100427.24
2023-07-06T12:04:16.312Z,100426.22
2023-07-06T12:06:21.944Z,100432.77
2023-07-06T12:08:27.992Z,100428.57
2023-07-06T12:10:33.324Z,100420.76
2023-07-06T12:12:38.770Z,100414.38
2023-07-06T12:14:44.129Z,100418.88
2023-07-06T12:16:49.551Z,100415.03
2023-07-06T12:18:55.094Z,100408.67
2023-07-06T12:21:04.020Z,100409
2023-07-06T12:23:09.453Z,100407.73
2023-07-06T12:25:15.045Z,100408.88
2023-07-06T12:27:20.601Z,100401.45
2023-07-06T12:29:26.324Z,100402.01
2023-07-06T12:31:31.995Z,100401.66
2023-07-06T12:33:37.769Z,100397.92
2023-07-06T12:35:43.321Z,100396.42
2023-07-06T12:37:48.845Z,100394.92
2023-07-06T12:39:54.410Z,100398.28
2023-07-06T12:42:00.053Z,100394.64
2023-07-06T12:44:05.596Z,100396.97
2023-07-06T12:46:11.194Z,100391.91
2023-07-06T12:48:16.791Z,100388.55
2023-07-06T12:50:22.114Z,100394.29
2023-07-06T12:52:27.735Z,100390.2
2023-07-06T12:54:33.378Z,100393.16
2023-07-06T12:56:38.663Z,100392.13
2023-07-06T12:58:44.040Z,100398.02
2023-07-06T13:00:49.619Z,100392.87
2023-07-06T13:02:55.344Z,100395.3
2023-07-06T13:05:01.021Z,100394.55
2023-07-06T13:07:06.486Z,100395
2023-07-06T13:09:11.909Z,100396.03
2023-07-06T13:11:17.245Z,100390.73
2023-07-06T13:13:22.945Z,100393.52
2023-07-06T13:15:28.637Z,100394.3
2023-07-06T13:17:34.202Z,100398.85
2023-07-06T13:19:40.057Z,100395.47
2023-07-06T13:21:45.530Z,100397.16
2023-07-06T13:23:51.010Z,100397.22
2023-07-06T13:25:57.684Z,100398.77
2023-07-06T13:28:03.998Z,100395.48
2023-07-06T13:30:09.707Z,100392.52
2023-07-06T13:32:19.667Z,100393.35
2023-07-06T13:34:25.880Z,100388.27
2023-07-06T13:36:31.340Z,100384.86
2023-07-06T13:38:36.670Z,100392.86
2023-07-06T13:40:42.085Z,100394.66
2023-07-06T13:42:48.175Z,100390.91
2023-07-06T13:44:54.020Z,100392.8
2023-07-06T13:46:59.418Z,100389.64
2023-07-06T13:49:05.012Z,100390.48
2023-07-06T13:51:10.562Z,100394.38
2023-07-06T13:53:15.990Z,100393.79
2023-07-06T13:55:21.443Z,100393.75
2023-07-06T13:57:27.188Z,100392.35
2023-07-06T13:59:32.719Z,100393.91
2023-07-06T14:01:38.460Z,100389.65
2023-07-06T14:03:44.598Z,100394.45
2023-07-06T14:05:50.285Z,100392.38
2023-07-06T14:07:55.834Z,100396.16
2023-07-06T14:10:01.705Z,100396.58
2023-07-06T14:12:07.470Z,100396.99
2023-07-06T14:14:13.280Z,100394.23
2023-07-06T14:16:19.070Z,100392.7
2023-07-06T14:18:24.455Z,100393.39
2023-07-06T14:20:30.107Z,100392.45
2023-07-06T14:22:35.734Z,100390.35
2023-07-06T14:24:41.376Z,100394.47
2023-07-06T14:26:46.878Z,100395.58
2023-07-06T14:28:52.568Z,100397.12
2023-07-06T14:30:58.117Z,100390.8
2023-07-06T14:33:03.785Z,100388.31
2023-07-06T14:35:09.518Z,100384.6
2023-07-06T14:37:15.072Z,100380.78
2023-07-06T14:39:21.041Z,100386.36
2023-07-06T14:41:26.660Z,100388.38
2023-07-06T14:43:34.973Z,100389.34
2023-07-06T14:45:40.638Z,100388.73
2023-07-06T14:47:46.287Z,100388.82
2023-07-06T14:49:51.908Z,100388.69
2023-07-06T14:51:57.340Z,100395.06
2023-07-06T14:54:02.929Z,100389.57
2023-07-06T14:56:08.290Z,100390.45
2023-07-06T14:58:13.884Z,100388.41
2023-07-06T15:00:19.414Z,100388.91
2023-07-06T15:02:25.059Z,100384.91
2023-07-06T15:04:30.614Z,100383.77
2023-07-06T15:06:36.154Z,100387.64
2023-07-06T15:08:41.677Z,100387.41
2023-07-06T15:10:47.237Z,100388.55
2023-07-06T15:12:53.085Z,100388.83
2023-07-06T15:14:58.538Z,100386.85
2023-07-06T15:17:04.070Z,100387.39
2023-07-06T15:19:09.625Z,100389.13
2023-07-06T15:21:15.143Z,100389.64
2023-07-06T15:23:20.584Z,100391.76
2023-07-06T15:25:26.241Z,100392.25
2023-07-06T15:27:31.817Z,100390.24
2023-07-06T15:29:37.336Z,100393.04
2023-07-06T15:31:43.000Z,100393.34
2023-07-06T15:33:48.528Z,100388.07
2023-07-06T15:35:54.198Z,100384.67
2023-07-06T15:37:59.917Z,100384.05
2023-07-06T15:40:05.311Z,100382.09
2023-07-06T15:42:10.989Z,100378.53
2023-07-06T15:44:16.440Z,100385.05
2023-07-06T15:46:22.116Z,100381.59
2023-07-06T15:48:27.938Z,100383.36
2023-07-06T15:50:33.494Z,100382.78
2023-07-06T15:52:38.974Z,100378.22
2023-07-06T15:54:44.418Z,100383.48
2023-07-06T15:56:49.902Z,100379.79
2023-07-06T15:58:55.269Z,100380.86
2023-07-06T16:01:00.837Z,100379.41
2023-07-06T16:03:06.946Z,100383.26
2023-07-06T16:05:12.484Z,100379.81
2023-07-06T16:07:23.860Z,100382
2023-07-06T16:09:32.132Z,100387.7
2023-07-06T16:11:37.620Z,100384.16
2023-07-06T16:13:43.124Z,100389.39
2023-07-06T16:15:48.804Z,100384.91
2023-07-06T16:17:54.423Z,100382.86
2023-07-06T16:20:00.331Z,100383.52
2023-07-06T16:22:05.870Z,100385.17
2023-07-06T16:24:11.498Z,100382.28
2023-07-06T16:26:16.982Z,100383.45
2023-07-06T16:28:22.605Z,100383
2023-07-06T16:30:28.043Z,100380.42
2023-07-06T16:32:33.701Z,100380.06
2023-07-06T16:34:39.336Z,100382.39
2023-07-06T16:36:44.841Z,100381.5
2023-07-06T16:38:50.420Z,100380.3
2023-07-06T16:40:55.857Z,100385.66
2023-07-06T16:43:01.210Z,100385.11
2023-07-06T16:45:06.623Z,100381.58
2023-07-06T16:47:12.225Z,100387.27
2023-07-06T16:49:17.613Z,100387.53
2023-07-06T16:51:23.060Z,100382.23
2023-07-06T16:53:28.500Z,100386.09
2023-07-06T16:55:33.886Z,100391.73
2023-07-06T16:57:39.587Z,100391.28
2023-07-06T16:59:44.920Z,100393.66
2023-07-06T17:01:50.824Z,100388.5
2023-07-06T17:03:56.384Z,100393.25
2023-07-06T17:06:02.433Z,100391.98
2023-07-06T17:08:07.915Z,100391.27
2023-07-06T17:10:13.434Z,100395.47
2023-07-06T17:12:18.802Z,100397.5
2023-07-06T17:14:24.379Z,100398.75
2023-07-06T17:16:29.899Z,100400.39
2023-07-06T17:18:35.332Z,100400.95
2023-07-06T17:20:40.871Z,100399.7
2023-07-06T17:22:48.653Z,100396.61
2023-07-06T17:24:54.173Z,100394.78
2023-07-06T17:26:59.684Z,100396.16
2023-07-06T17:29:05.097Z,100405.28
2023-07-06T17:31:10.674Z,100404.16
2023-07-06T17:33:16.377Z,100402.25
2023-07-06T17:35:21.744Z,100404.17
2023-07-06T17:37:27.168Z,100402.84
2023-07-06T17:39:32.698Z,100404.33
2023-07-06T17:41:38.594Z,100404.88
2023-07-06T17:43:44.906Z,100406.98
2023-07-06T17:45:50.508Z,100408.1
2023-07-06T17:47:56.448Z,100406.02
2023-07-06T17:50:01.885Z,100408.23
2023-07-06T17:52:07.458Z,100405.81
2023-07-06T17:54:12.772Z,100410.24
2023-07-06T17:56:18.276Z,100410.2
2023-07-06T17:58:23.700Z,100414.16
2023-07-06T18:00:29.184Z,100416.33
2023-07-06T18:02:34.812Z,100419.11
2023-07-06T18:04:40.446Z,100421.31
2023-07-06T18:06:45.876Z,100425.29
2023-07-06T18:08:51.688Z,100424.95
2023-07-06T18:10:57.083Z,100424.58
2023-07-06T18:13:02.505Z,100424.4
2023-07-06T18:15:08.053Z,100421.52
2023-07-06T18:17:13.610Z,100425.86
2023-07-06T18:19:19.246Z,100423.05
2023-07-06T18:21:24.707Z,100428.36
2023-07-06T18:23:30.188Z,100427.31
2023-07-06T18:25:35.612Z,100429.02
2023-07-06T18:27:41.104Z,100428.89
2023-07-06T18:29:46.653Z,100430.64
2023-07-06T18:31:52.399Z,100425.55
2023-07-06T18:33:57.943Z,100431.27
2023-07-06T18:36:03.508Z,100432.34
2023-07-06T18:38:09.028Z,100429.59
2023-07-06T18:40:14.317Z,100433.84
2023-07-06T18:42:19.655Z,100438.27
2023-07-06T18:44:25.044Z,100435.31
2023-07-06T18:46:30.548Z,100435.3
2023-07-06T18:48:36.170Z,100439.98
2023-07-06T18:50:41.581Z,100449.77
2023-07-06T18:52:47.221Z,100448.67
2023-07-06T18:54:52.718Z,100451.78
2023-07-06T18:56:58.101Z,100452.97
2023-07-06T18:59:03.434Z,100459.34
2023-07-06T19:01:09.121Z,100458.13
2023-07-06T19:03:14.689Z,100459.67
2023-07-06T19:05:20.264Z,100459.04
2023-07-06T19:07:25.803Z,100468.59
2023-07-06T19:09:31.162Z,100470.09
2023-07-06T19:11:36.540Z,100473.6
2023-07-06T19:13:42.136Z,100477.5
2023-07-06T19:15:47.777Z,100479.82
2023-07-06T19:17:53.610Z,100482.48
2023-07-06T19:19:59.174Z,100481.21
2023-07-06T19:22:04.714Z,100486.48
2023-07-06T19:24:10.391Z,100488.38
2023-07-06T19:26:15.915Z,100494.94
2023-07-06T19:28:21.554Z,100501.27
2023-07-06T19:30:27.091Z,100504.06
2023-07-06T19:32:32.646Z,100506.97
2023-07-06T19:34:38.193Z,100507.59
2023-07-06T19:36:43.932Z,100511.47
2023-07-06T19:38:49.617Z,100512.92
2023-07-06T19:40:55.062Z,100512.5
2023-07-06T19:43:00.548Z,100513.48
2023-07-06T19:45:06.132Z,100514.64
2023-07-06T19:47:11.612Z,100517.63
2023-07-06T19:49:17.392Z,100517.2
2023-07-06T19:51:23.455Z,100518.05
2023-07-06T19:53:28.873Z,100519.02
2023-07-06T19:55:34.337Z,100520.64
2023-07-06T19:57:46.726Z,100521.91
2023-07-06T19:59:52.199Z,100522.9
2023-07-06T20:01:57.767Z,100523.14
2023-07-06T20:04:04.471Z,100525.25
2023-07-06T20:06:09.734Z,100526.45
2023-07-06T20:08:15.161Z,100530.13
2023-07-06T20:10:20.512Z,100527.63
2023-07-06T20:12:25.764Z,100530.88
2023-07-06T20:14:31.383Z,100530.86
2023-07-06T20:16:37.056Z,100534.37
2023-07-06T20:18:42.672Z,100533.3
2023-07-06T20:20:48.085Z,100536.39
2023-07-06T20:22:53.491Z,100539.88
2023-07-06T20:24:58.989Z,100537.09
2023-07-06T20:27:04.251Z,100540.23
2023-07-06T20:29:09.578Z,100543.23
2023-07-06T20:31:15.054Z,100546.72
2023-07-06T20:33:20.651Z,100545.64
2023-07-06T20:35:26.302Z,100549.91
2023-07-06T20:37:31.647Z,100548
2023-07-06T20:39:37.190Z,100553.06
2023-07-06T20:41:42.719Z,100554.56
2023-07-06T20:43:48.361Z,100552.27
2023-07-06T20:45:53.981Z,100556.6
2023-07-06T20:47:59.407Z,100559.22
2023-07-06T20:50:04.993Z,100563.45
2023-07-06T20:52:10.434Z,100567.91
2023-07-06T20:54:15.886Z,100568.03
2023-07-06T20:56:21.376Z,100568.84
2023-07-06T20:58:26.960Z,100568.98
2023-07-06T21:00:32.408Z,100570.4
2023-07-06T21:02:37.866Z,100568.28
2023-07-06T21:04:43.448Z,100568.36
2023-07-06T21:06:49.042Z,100570.36
2023-07-06T21:08:54.578Z,100571.47
2023-07-06T21:11:00.414Z,100571.52
2023-07-06T21:13:06.072Z,100572.86
2023-07-06T21:15:11.401Z,100570.7
2023-07-06T21:17:16.941Z,100572.05
2023-07-06T21:19:22.608Z,100572.17
2023-07-06T21:21:28.139Z,100576.78
2023-07-06T21:23:33.679Z,100583.74
2023-07-06T21:25:39.207Z,100584.08
2023-07-06T21:27:44.766Z,100583.23
2023-07-06T21:29:50.306Z,100586.14
2023-07-06T21:31:55.886Z,100589.34
2023-07-06T21:34:01.297Z,100589.05
2023-07-06T21:36:06.848Z,100592.99
2023-07-06T21:38:12.379Z,100594.73
2023-07-06T21:40:17.928Z,100591.99
2023-07-06T21:42:23.362Z,100594.38
2023-07-06T21:44:28.907Z,100599.23
2023-07-06T21:46:34.636Z,100599.88
2023-07-06T21:48:40.205Z,100603.2
2023-07-06T21:50:45.749Z,100600.45
2023-07-06T21:52:51.284Z,100603.53
2023-07-06T21:54:56.936Z,100607.73
2023-07-06T21:57:02.449Z,100605.61
2023-07-06T21:59:08.219Z,100606.68
2023-07-06T22:01:13.792Z,100604.73
2023-07-06T22:03:19.310Z,100601.73
2023-07-06T22:05:24.871Z,100607.23
2023-07-06T22:07:30.367Z,100606.39
2023-07-06T22:09:35.760Z,100604.88
2023-07-06T22:11:41.270Z,100606.41
2023-07-06T22:13:47.065Z,100609.69
2023-07-06T22:15:52.972Z,100612.92
2023-07-06T22:17:58.667Z,100610.38
2023-07-06T22:20:04.176Z,100609.91
2023-07-06T22:22:09.618Z,100608.45
2023-07-06T22:24:15.043Z,100612.55
2023-07-06T22:26:20.566Z,100609.84
2023-07-06T22:28:26.097Z,100607.4
2023-07-06T22:30:31.678Z,100610.51
2023-07-06T22:32:37.210Z,100612.76
2023-07-06T22:34:42.758Z,100612.03
2023-07-06T22:36:48.201Z,100613.4
2023-07-06T22:38:53.683Z,100612.2
2023-07-06T22:40:59.436Z,100614.39
2023-07-06T22:43:05.104Z,100614.94
2023-07-06T22:45:10.679Z,100616.46
2023-07-06T22:47:16.125Z,100617.41
2023-07-06T22:49:21.664Z,100625.83
2023-07-06T22:51:27.108Z,100624.26
2023-07-06T22:53:33.078Z,100623.79
2023-07-06T22:55:38.508Z,100626.94
2023-07-06T22:57:43.900Z,100626.98
2023-07-06T22:59:49.282Z,100629.61
2023-07-06T23:01:55.273Z,100627.41
2023-07-06T23:04:01.230Z,100627.78
2023-07-06T23:06:06.974Z,100630.45
2023-07-06T23:08:12.383Z,100635.27
2023-07-06T23:10:18.011Z,100635.06
2023-07-06T23:12:23.609Z,100634.19
2023-07-06T23:14:29.089Z,100632
2023-07-06T23:16:34.763Z,100634.56
2023-07-06T23:18:40.181Z,100634.6
2023-07-06T23:20:45.623Z,100638.52
2023-07-06T23:22:51.059Z,100644.5
2023-07-06T23:24:56.608Z,100643.53
2023-07-06T23:27:02.141Z,100645.34
2023-07-06T23:29:07.597Z,100643.75
2023-07-06T23:31:13.071Z,100646.99
2023-07-06T23:33:18.667Z,100650.84
2023-07-06T23:35:24.321Z,100649.45
2023-07-06T23:37:29.771Z,100647.95
2023-07-06T23:39:35.197Z,100649.8
2023-07-06T23:41:40.647Z,100651.27
2023-07-06T23:43:46.082Z,100649.91
2023-07-06T23:45:51.634Z,100649.62
2023-07-06T23:47:57.229Z,100651.73
2023-07-06T23:50:02.825Z,100653.34
2023-07-06T23:52:08.450Z,100651.72
2023-07-06T23:54:13.964Z,100654.12
2023-07-06T23:56:19.539Z,100658.44
2023-07-06T23:58:24.975Z,100659.64
